sensor_id;sensor_type;location;lat;lon;timestamp;P1;durP1;ratioP1;P2;durP2;ratioP2
23046;SDS011;11691;51.462;6.902;2023-04-09T00:00:43;40.00;;;21.67;;
23046;SDS011;11691;51.462;6.902;2023-04-09T00:03:09;40.77;;;21.80;;
23046;SDS011;11691;51.462;6.902;2023-04-09T00:05:38;35.70;;;20.50;;
23046;SDS011;11691;51.462;6.902;2023-04-09T00:08:05;39.00;;;21.57;;
23046;SDS011;11691;51.462;6.902;2023-04-09T00:10:31;41.97;;;23.40;;
23046;SDS011;11691;51.462;6.902;2023-04-09T00:12:57;40.50;;;22.57;;
23046;SDS011;11691;51.462;6.902;2023-04-09T00:15:23;40.53;;;22.73;;
23046;SDS011;11691;51.462;6.902;2023-04-09T00:17:49;37.70;;;22.13;;
23046;SDS011;11691;51.462;6.902;2023-04-09T00:20:16;41.83;;;23.43;;
23046;SDS011;11691;51.462;6.902;2023-04-09T00:22:42;42.83;;;23.57;;
23046;SDS011;11691;51.462;6.902;2023-04-09T00:25:08;37.57;;;22.73;;
23046;SDS011;11691;51.462;6.902;2023-04-09T00:27:34;41.90;;;22.03;;
23046;SDS011;11691;51.462;6.902;2023-04-09T00:30:00;42.23;;;22.63;;
23046;SDS011;11691;51.462;6.902;2023-04-09T00:32:26;38.23;;;21.87;;
23046;SDS011;11691;51.462;6.902;2023-04-09T00:34:52;36.40;;;22.20;;
23046;SDS011;11691;51.462;6.902;2023-04-09T00:37:18;47.03;;;22.87;;
23046;SDS011;11691;51.462;6.902;2023-04-09T00:39:44;39.93;;;23.50;;
23046;SDS011;11691;51.462;6.902;2023-04-09T00:42:11;41.47;;;22.37;;
23046;SDS011;11691;51.462;6.902;2023-04-09T00:44:37;41.83;;;22.67;;
23046;SDS011;11691;51.462;6.902;2023-04-09T00:47:03;39.20;;;22.53;;
23046;SDS011;11691;51.462;6.902;2023-04-09T00:49:29;41.43;;;23.07;;
23046;SDS011;11691;51.462;6.902;2023-04-09T00:51:55;42.17;;;22.50;;
23046;SDS011;11691;51.462;6.902;2023-04-09T00:54:21;44.10;;;22.77;;
23046;SDS011;11691;51.462;6.902;2023-04-09T00:56:47;43.13;;;23.50;;
23046;SDS011;11691;51.462;6.902;2023-04-09T00:59:13;39.40;;;22.27;;
23046;SDS011;11691;51.462;6.902;2023-04-09T01:01:40;43.00;;;21.93;;
23046;SDS011;11691;51.462;6.902;2023-04-09T01:04:06;41.70;;;22.80;;
23046;SDS011;11691;51.462;6.902;2023-04-09T01:09:02;41.77;;;22.23;;
23046;SDS011;11691;51.462;6.902;2023-04-09T01:14:01;42.83;;;23.43;;
23046;SDS011;11691;51.462;6.902;2023-04-09T01:16:30;42.07;;;22.67;;
23046;SDS011;11691;51.462;6.902;2023-04-09T01:19:47;41.33;;;23.10;;
23046;SDS011;11691;51.462;6.902;2023-04-09T01:21:47;36.30;;;22.00;;
23046;SDS011;11691;51.462;6.902;2023-04-09T01:27:14;38.07;;;21.57;;
23046;SDS011;11691;51.462;6.902;2023-04-09T01:29:43;42.40;;;23.43;;
23046;SDS011;11691;51.462;6.902;2023-04-09T01:32:11;39.70;;;22.27;;
23046;SDS011;11691;51.462;6.902;2023-04-09T01:34:40;41.07;;;23.50;;
23046;SDS011;11691;51.462;6.902;2023-04-09T01:37:07;39.30;;;21.90;;
23046;SDS011;11691;51.462;6.902;2023-04-09T01:39:33;41.87;;;23.83;;
23046;SDS011;11691;51.462;6.902;2023-04-09T01:42:01;45.27;;;22.87;;
23046;SDS011;11691;51.462;6.902;2023-04-09T01:44:28;40.00;;;22.90;;
23046;SDS011;11691;51.462;6.902;2023-04-09T01:46:54;42.87;;;23.57;;
23046;SDS011;11691;51.462;6.902;2023-04-09T01:49:22;45.30;;;24.43;;
23046;SDS011;11691;51.462;6.902;2023-04-09T01:51:48;39.43;;;22.63;;
23046;SDS011;11691;51.462;6.902;2023-04-09T01:54:15;42.60;;;23.03;;
23046;SDS011;11691;51.462;6.902;2023-04-09T01:56:45;41.13;;;22.87;;
23046;SDS011;11691;51.462;6.902;2023-04-09T01:59:12;41.03;;;22.30;;
23046;SDS011;11691;51.462;6.902;2023-04-09T02:04:14;49.17;;;24.37;;
23046;SDS011;11691;51.462;6.902;2023-04-09T02:07:05;49.63;;;24.93;;
23046;SDS011;11691;51.462;6.902;2023-04-09T02:09:34;44.23;;;24.67;;
23046;SDS011;11691;51.462;6.902;2023-04-09T02:12:02;43.07;;;23.17;;
23046;SDS011;11691;51.462;6.902;2023-04-09T02:14:28;42.40;;;24.53;;
23046;SDS011;11691;51.462;6.902;2023-04-09T02:16:56;48.00;;;24.53;;
23046;SDS011;11691;51.462;6.902;2023-04-09T02:19:22;46.13;;;26.23;;
23046;SDS011;11691;51.462;6.902;2023-04-09T02:21:48;51.17;;;25.67;;
23046;SDS011;11691;51.462;6.902;2023-04-09T02:24:14;47.57;;;25.30;;
23046;SDS011;11691;51.462;6.902;2023-04-09T02:26:40;44.80;;;24.20;;
23046;SDS011;11691;51.462;6.902;2023-04-09T02:29:06;48.33;;;25.47;;
23046;SDS011;11691;51.462;6.902;2023-04-09T02:31:32;47.30;;;25.80;;
23046;SDS011;11691;51.462;6.902;2023-04-09T02:33:57;45.33;;;23.30;;
23046;SDS011;11691;51.462;6.902;2023-04-09T02:36:23;45.90;;;25.50;;
23046;SDS011;11691;51.462;6.902;2023-04-09T02:38:51;48.17;;;24.83;;
23046;SDS011;11691;51.462;6.902;2023-04-09T02:41:17;49.40;;;26.53;;
23046;SDS011;11691;51.462;6.902;2023-04-09T02:43:43;48.77;;;25.70;;
23046;SDS011;11691;51.462;6.902;2023-04-09T02:46:09;54.23;;;27.77;;
23046;SDS011;11691;51.462;6.902;2023-04-09T02:48:35;55.00;;;28.63;;
23046;SDS011;11691;51.462;6.902;2023-04-09T02:51:03;56.60;;;30.80;;
23046;SDS011;11691;51.462;6.902;2023-04-09T02:53:29;55.27;;;30.53;;
23046;SDS011;11691;51.462;6.902;2023-04-09T02:55:55;53.53;;;29.93;;
23046;SDS011;11691;51.462;6.902;2023-04-09T02:58:21;52.83;;;29.57;;
23046;SDS011;11691;51.462;6.902;2023-04-09T03:00:47;57.97;;;32.57;;
23046;SDS011;11691;51.462;6.902;2023-04-09T03:03:13;64.50;;;32.27;;
23046;SDS011;11691;51.462;6.902;2023-04-09T03:05:39;57.00;;;32.50;;
23046;SDS011;11691;51.462;6.902;2023-04-09T03:08:05;60.73;;;32.93;;
23046;SDS011;11691;51.462;6.902;2023-04-09T03:10:31;58.37;;;32.90;;
23046;SDS011;11691;51.462;6.902;2023-04-09T03:12:57;66.87;;;35.43;;
23046;SDS011;11691;51.462;6.902;2023-04-09T03:15:23;63.77;;;33.70;;
23046;SDS011;11691;51.462;6.902;2023-04-09T03:17:49;61.63;;;34.07;;
23046;SDS011;11691;51.462;6.902;2023-04-09T03:20:15;63.80;;;33.00;;
23046;SDS011;11691;51.462;6.902;2023-04-09T03:22:41;62.43;;;31.37;;
23046;SDS011;11691;51.462;6.902;2023-04-09T03:25:07;59.60;;;31.80;;
23046;SDS011;11691;51.462;6.902;2023-04-09T03:27:34;61.03;;;31.30;;
23046;SDS011;11691;51.462;6.902;2023-04-09T03:30:00;55.13;;;29.03;;
23046;SDS011;11691;51.462;6.902;2023-04-09T03:32:27;50.53;;;27.77;;
23046;SDS011;11691;51.462;6.902;2023-04-09T03:34:53;58.17;;;29.63;;
23046;SDS011;11691;51.462;6.902;2023-04-09T03:37:18;55.70;;;29.03;;
23046;SDS011;11691;51.462;6.902;2023-04-09T03:39:44;54.47;;;27.50;;
23046;SDS011;11691;51.462;6.902;2023-04-09T03:42:10;53.10;;;27.37;;
23046;SDS011;11691;51.462;6.902;2023-04-09T03:44:36;53.17;;;28.37;;
23046;SDS011;11691;51.462;6.902;2023-04-09T03:47:02;56.10;;;28.43;;
23046;SDS011;11691;51.462;6.902;2023-04-09T03:49:28;52.83;;;28.47;;
23046;SDS011;11691;51.462;6.902;2023-04-09T03:51:54;52.50;;;27.10;;
23046;SDS011;11691;51.462;6.902;2023-04-09T03:54:20;48.30;;;26.10;;
23046;SDS011;11691;51.462;6.902;2023-04-09T03:56:46;52.27;;;26.73;;
23046;SDS011;11691;51.462;6.902;2023-04-09T03:59:12;51.23;;;26.83;;
23046;SDS011;11691;51.462;6.902;2023-04-09T04:01:38;49.40;;;26.13;;
23046;SDS011;11691;51.462;6.902;2023-04-09T04:04:04;49.27;;;25.53;;
23046;SDS011;11691;51.462;6.902;2023-04-09T04:06:32;45.73;;;24.13;;
23046;SDS011;11691;51.462;6.902;2023-04-09T04:08:59;54.70;;;27.10;;
23046;SDS011;11691;51.462;6.902;2023-04-09T04:11:25;44.17;;;25.30;;
23046;SDS011;11691;51.462;6.902;2023-04-09T04:13:51;49.10;;;24.77;;
23046;SDS011;11691;51.462;6.902;2023-04-09T04:16:19;46.30;;;23.90;;
23046;SDS011;11691;51.462;6.902;2023-04-09T04:18:45;43.33;;;23.47;;
23046;SDS011;11691;51.462;6.902;2023-04-09T04:21:12;42.57;;;23.20;;
23046;SDS011;11691;51.462;6.902;2023-04-09T04:23:38;46.10;;;24.43;;
23046;SDS011;11691;51.462;6.902;2023-04-09T04:26:08;44.73;;;24.47;;
23046;SDS011;11691;51.462;6.902;2023-04-09T04:28:35;46.83;;;24.17;;
23046;SDS011;11691;51.462;6.902;2023-04-09T04:31:01;43.37;;;22.67;;
23046;SDS011;11691;51.462;6.902;2023-04-09T04:33:27;44.87;;;25.03;;
23046;SDS011;11691;51.462;6.902;2023-04-09T04:35:53;47.60;;;24.87;;
23046;SDS011;11691;51.462;6.902;2023-04-09T04:38:28;46.40;;;23.50;;
23046;SDS011;11691;51.462;6.902;2023-04-09T04:40:54;43.77;;;23.17;;
23046;SDS011;11691;51.462;6.902;2023-04-09T04:43:20;44.47;;;24.07;;
23046;SDS011;11691;51.462;6.902;2023-04-09T04:45:46;42.93;;;22.87;;
23046;SDS011;11691;51.462;6.902;2023-04-09T04:48:12;42.50;;;23.57;;
23046;SDS011;11691;51.462;6.902;2023-04-09T04:50:38;46.57;;;24.87;;
23046;SDS011;11691;51.462;6.902;2023-04-09T04:53:04;44.77;;;23.83;;
23046;SDS011;11691;51.462;6.902;2023-04-09T04:55:30;44.30;;;24.20;;
23046;SDS011;11691;51.462;6.902;2023-04-09T04:57:56;47.03;;;24.87;;
23046;SDS011;11691;51.462;6.902;2023-04-09T05:00:22;47.50;;;26.30;;
23046;SDS011;11691;51.462;6.902;2023-04-09T05:02:48;48.77;;;26.23;;
23046;SDS011;11691;51.462;6.902;2023-04-09T05:05:14;49.87;;;26.13;;
23046;SDS011;11691;51.462;6.902;2023-04-09T05:07:40;50.57;;;26.57;;
23046;SDS011;11691;51.462;6.902;2023-04-09T05:10:07;50.23;;;26.87;;
23046;SDS011;11691;51.462;6.902;2023-04-09T05:12:33;50.73;;;26.13;;
23046;SDS011;11691;51.462;6.902;2023-04-09T05:14:59;52.27;;;27.70;;
23046;SDS011;11691;51.462;6.902;2023-04-09T05:17:25;51.60;;;27.27;;
23046;SDS011;11691;51.462;6.902;2023-04-09T05:19:51;46.37;;;26.17;;
23046;SDS011;11691;51.462;6.902;2023-04-09T05:22:17;52.20;;;27.80;;
23046;SDS011;11691;51.462;6.902;2023-04-09T05:24:43;52.50;;;27.10;;
23046;SDS011;11691;51.462;6.902;2023-04-09T05:27:09;52.30;;;26.67;;
23046;SDS011;11691;51.462;6.902;2023-04-09T05:29:35;50.20;;;26.87;;
23046;SDS011;11691;51.462;6.902;2023-04-09T05:32:01;48.43;;;26.60;;
23046;SDS011;11691;51.462;6.902;2023-04-09T05:34:28;49.17;;;26.93;;
23046;SDS011;11691;51.462;6.902;2023-04-09T05:36:54;48.97;;;27.07;;
23046;SDS011;11691;51.462;6.902;2023-04-09T05:39:20;51.93;;;26.70;;
23046;SDS011;11691;51.462;6.902;2023-04-09T05:41:45;48.07;;;25.87;;
23046;SDS011;11691;51.462;6.902;2023-04-09T05:44:11;52.40;;;26.33;;
23046;SDS011;11691;51.462;6.902;2023-04-09T05:46:37;52.50;;;27.57;;
23046;SDS011;11691;51.462;6.902;2023-04-09T05:49:03;55.37;;;27.27;;
23046;SDS011;11691;51.462;6.902;2023-04-09T05:51:30;46.27;;;26.07;;
23046;SDS011;11691;51.462;6.902;2023-04-09T05:53:56;50.37;;;26.80;;
23046;SDS011;11691;51.462;6.902;2023-04-09T05:56:22;42.70;;;23.93;;
23046;SDS011;11691;51.462;6.902;2023-04-09T05:58:48;42.50;;;24.80;;
23046;SDS011;11691;51.462;6.902;2023-04-09T06:01:13;49.00;;;25.57;;
23046;SDS011;11691;51.462;6.902;2023-04-09T06:03:39;42.67;;;24.83;;
23046;SDS011;11691;51.462;6.902;2023-04-09T06:06:05;44.27;;;24.20;;
23046;SDS011;11691;51.462;6.902;2023-04-09T06:08:32;42.27;;;24.27;;
23046;SDS011;11691;51.462;6.902;2023-04-09T06:10:57;39.63;;;22.73;;
23046;SDS011;11691;51.462;6.902;2023-04-09T06:13:24;40.83;;;24.20;;
23046;SDS011;11691;51.462;6.902;2023-04-09T06:15:50;39.23;;;22.67;;
23046;SDS011;11691;51.462;6.902;2023-04-09T06:18:16;38.07;;;22.23;;
23046;SDS011;11691;51.462;6.902;2023-04-09T06:20:42;40.07;;;22.23;;
23046;SDS011;11691;51.462;6.902;2023-04-09T06:23:08;39.10;;;21.60;;
23046;SDS011;11691;51.462;6.902;2023-04-09T06:25:35;39.60;;;22.57;;
23046;SDS011;11691;51.462;6.902;2023-04-09T06:28:01;37.83;;;21.17;;
23046;SDS011;11691;51.462;6.902;2023-04-09T06:30:27;34.63;;;21.10;;
23046;SDS011;11691;51.462;6.902;2023-04-09T06:32:55;32.00;;;20.17;;
23046;SDS011;11691;51.462;6.902;2023-04-09T06:35:21;38.13;;;20.77;;
23046;SDS011;11691;51.462;6.902;2023-04-09T06:37:47;35.63;;;20.07;;
23046;SDS011;11691;51.462;6.902;2023-04-09T06:40:13;33.33;;;19.77;;
23046;SDS011;11691;51.462;6.902;2023-04-09T06:42:40;34.60;;;19.23;;
23046;SDS011;11691;51.462;6.902;2023-04-09T06:45:06;33.37;;;19.83;;
23046;SDS011;11691;51.462;6.902;2023-04-09T06:47:32;29.77;;;18.40;;
23046;SDS011;11691;51.462;6.902;2023-04-09T06:49:58;29.67;;;17.87;;
23046;SDS011;11691;51.462;6.902;2023-04-09T06:52:24;28.40;;;17.67;;
23046;SDS011;11691;51.462;6.902;2023-04-09T06:54:50;29.47;;;17.83;;
23046;SDS011;11691;51.462;6.902;2023-04-09T06:57:16;28.90;;;16.93;;
23046;SDS011;11691;51.462;6.902;2023-04-09T06:59:42;25.60;;;15.77;;
23046;SDS011;11691;51.462;6.902;2023-04-09T07:02:08;23.37;;;15.30;;
23046;SDS011;11691;51.462;6.902;2023-04-09T07:04:34;28.07;;;16.20;;
23046;SDS011;11691;51.462;6.902;2023-04-09T07:07:00;26.83;;;15.93;;
23046;SDS011;11691;51.462;6.902;2023-04-09T07:09:26;25.67;;;15.17;;
23046;SDS011;11691;51.462;6.902;2023-04-09T07:11:52;24.77;;;14.70;;
23046;SDS011;11691;51.462;6.902;2023-04-09T07:14:18;24.83;;;15.63;;
23046;SDS011;11691;51.462;6.902;2023-04-09T07:16:44;25.53;;;14.10;;
23046;SDS011;11691;51.462;6.902;2023-04-09T07:19:11;24.60;;;15.43;;
23046;SDS011;11691;51.462;6.902;2023-04-09T07:21:37;22.87;;;14.03;;
23046;SDS011;11691;51.462;6.902;2023-04-09T07:24:03;22.73;;;14.50;;
23046;SDS011;11691;51.462;6.902;2023-04-09T07:26:29;21.83;;;14.00;;
23046;SDS011;11691;51.462;6.902;2023-04-09T07:28:55;21.53;;;13.93;;
23046;SDS011;11691;51.462;6.902;2023-04-09T07:31:22;21.07;;;13.73;;
23046;SDS011;11691;51.462;6.902;2023-04-09T07:33:48;21.50;;;13.50;;
23046;SDS011;11691;51.462;6.902;2023-04-09T07:36:13;19.95;;;13.75;;
23046;SDS011;11691;51.462;6.902;2023-04-09T07:38:40;21.95;;;13.13;;
23046;SDS011;11691;51.462;6.902;2023-04-09T07:41:09;20.17;;;13.93;;
23046;SDS011;11691;51.462;6.902;2023-04-09T07:43:35;20.73;;;12.77;;
23046;SDS011;11691;51.462;6.902;2023-04-09T07:46:00;18.40;;;12.02;;
23046;SDS011;11691;51.462;6.902;2023-04-09T07:48:26;18.90;;;11.65;;
23046;SDS011;11691;51.462;6.902;2023-04-09T07:50:52;16.35;;;10.80;;
23046;SDS011;11691;51.462;6.902;2023-04-09T07:53:18;17.17;;;10.48;;
23046;SDS011;11691;51.462;6.902;2023-04-09T07:55:44;17.27;;;11.45;;
23046;SDS011;11691;51.462;6.902;2023-04-09T07:58:10;17.95;;;10.77;;
23046;SDS011;11691;51.462;6.902;2023-04-09T08:00:36;17.40;;;10.73;;
23046;SDS011;11691;51.462;6.902;2023-04-09T08:03:02;15.40;;;10.13;;
23046;SDS011;11691;51.462;6.902;2023-04-09T08:05:28;13.98;;;9.60;;
23046;SDS011;11691;51.462;6.902;2023-04-09T08:07:54;14.88;;;9.63;;
23046;SDS011;11691;51.462;6.902;2023-04-09T08:10:20;15.48;;;9.43;;
23046;SDS011;11691;51.462;6.902;2023-04-09T08:12:47;14.73;;;10.15;;
23046;SDS011;11691;51.462;6.902;2023-04-09T08:15:13;14.38;;;9.40;;
23046;SDS011;11691;51.462;6.902;2023-04-09T08:17:39;13.35;;;10.07;;
23046;SDS011;11691;51.462;6.902;2023-04-09T08:20:05;12.68;;;9.30;;
23046;SDS011;11691;51.462;6.902;2023-04-09T08:22:31;14.77;;;9.40;;
23046;SDS011;11691;51.462;6.902;2023-04-09T08:24:58;13.93;;;9.80;;
23046;SDS011;11691;51.462;6.902;2023-04-09T08:27:24;12.38;;;9.48;;
23046;SDS011;11691;51.462;6.902;2023-04-09T08:29:51;12.90;;;9.63;;
23046;SDS011;11691;51.462;6.902;2023-04-09T08:32:17;8.40;;;6.53;;
23046;SDS011;11691;51.462;6.902;2023-04-09T08:34:43;9.68;;;7.43;;
23046;SDS011;11691;51.462;6.902;2023-04-09T08:37:09;12.20;;;7.05;;
23046;SDS011;11691;51.462;6.902;2023-04-09T08:39:35;10.13;;;7.45;;
23046;SDS011;11691;51.462;6.902;2023-04-09T08:42:01;9.88;;;7.03;;
23046;SDS011;11691;51.462;6.902;2023-04-09T08:44:27;9.10;;;6.57;;
23046;SDS011;11691;51.462;6.902;2023-04-09T08:46:54;8.00;;;6.07;;
23046;SDS011;11691;51.462;6.902;2023-04-09T08:49:20;8.77;;;5.93;;
23046;SDS011;11691;51.462;6.902;2023-04-09T08:51:47;9.10;;;6.75;;
23046;SDS011;11691;51.462;6.902;2023-04-09T08:54:13;9.48;;;6.22;;
23046;SDS011;11691;51.462;6.902;2023-04-09T08:56:41;8.20;;;6.72;;
23046;SDS011;11691;51.462;6.902;2023-04-09T08:59:07;9.15;;;5.93;;
23046;SDS011;11691;51.462;6.902;2023-04-09T09:01:34;7.00;;;5.38;;
23046;SDS011;11691;51.462;6.902;2023-04-09T09:04:03;8.23;;;6.55;;
23046;SDS011;11691;51.462;6.902;2023-04-09T09:06:34;7.30;;;5.75;;
23046;SDS011;11691;51.462;6.902;2023-04-09T09:11:30;7.10;;;5.30;;
23046;SDS011;11691;51.462;6.902;2023-04-09T09:13:57;6.78;;;5.72;;
23046;SDS011;11691;51.462;6.902;2023-04-09T09:16:35;7.63;;;5.65;;
23046;SDS011;11691;51.462;6.902;2023-04-09T09:19:06;6.43;;;5.43;;
23046;SDS011;11691;51.462;6.902;2023-04-09T09:21:32;7.82;;;5.40;;
23046;SDS011;11691;51.462;6.902;2023-04-09T09:24:00;7.20;;;5.18;;
23046;SDS011;11691;51.462;6.902;2023-04-09T09:26:28;8.77;;;6.28;;
23046;SDS011;11691;51.462;6.902;2023-04-09T09:28:55;7.35;;;5.35;;
23046;SDS011;11691;51.462;6.902;2023-04-09T09:31:23;6.38;;;5.07;;
23046;SDS011;11691;51.462;6.902;2023-04-09T09:33:49;6.53;;;5.15;;
23046;SDS011;11691;51.462;6.902;2023-04-09T09:36:28;7.38;;;5.32;;
23046;SDS011;11691;51.462;6.902;2023-04-09T09:38:56;6.72;;;4.82;;
23046;SDS011;11691;51.462;6.902;2023-04-09T09:41:22;8.45;;;5.55;;
23046;SDS011;11691;51.462;6.902;2023-04-09T09:43:49;7.90;;;5.35;;
23046;SDS011;11691;51.462;6.902;2023-04-09T09:46:16;8.60;;;5.82;;
23046;SDS011;11691;51.462;6.902;2023-04-09T09:48:42;7.82;;;5.70;;
23046;SDS011;11691;51.462;6.902;2023-04-09T09:51:10;6.97;;;5.20;;
23046;SDS011;11691;51.462;6.902;2023-04-09T09:53:37;7.95;;;5.53;;
23046;SDS011;11691;51.462;6.902;2023-04-09T09:56:06;6.90;;;5.20;;
23046;SDS011;11691;51.462;6.902;2023-04-09T09:58:36;7.32;;;5.30;;
23046;SDS011;11691;51.462;6.902;2023-04-09T10:01:06;6.82;;;4.70;;
23046;SDS011;11691;51.462;6.902;2023-04-09T10:03:34;7.45;;;5.82;;
23046;SDS011;11691;51.462;6.902;2023-04-09T10:06:02;6.55;;;5.50;;
23046;SDS011;11691;51.462;6.902;2023-04-09T10:08:29;6.30;;;4.70;;
23046;SDS011;11691;51.462;6.902;2023-04-09T10:10:57;6.43;;;5.13;;
23046;SDS011;11691;51.462;6.902;2023-04-09T10:13:45;6.78;;;5.07;;
23046;SDS011;11691;51.462;6.902;2023-04-09T10:16:09;6.95;;;5.15;;
23046;SDS011;11691;51.462;6.902;2023-04-09T10:18:36;5.25;;;4.18;;
23046;SDS011;11691;51.462;6.902;2023-04-09T10:21:08;6.47;;;4.93;;
23046;SDS011;11691;51.462;6.902;2023-04-09T10:23:41;5.68;;;4.20;;
23046;SDS011;11691;51.462;6.902;2023-04-09T10:26:08;6.15;;;4.53;;
23046;SDS011;11691;51.462;6.902;2023-04-09T10:28:38;5.95;;;4.95;;
23046;SDS011;11691;51.462;6.902;2023-04-09T10:31:04;6.10;;;4.80;;
23046;SDS011;11691;51.462;6.902;2023-04-09T10:33:31;6.13;;;4.72;;
23046;SDS011;11691;51.462;6.902;2023-04-09T10:36:05;6.35;;;4.75;;
23046;SDS011;11691;51.462;6.902;2023-04-09T10:43:39;5.22;;;4.25;;
23046;SDS011;11691;51.462;6.902;2023-04-09T10:46:06;6.60;;;4.57;;
23046;SDS011;11691;51.462;6.902;2023-04-09T10:48:33;6.53;;;4.40;;
23046;SDS011;11691;51.462;6.902;2023-04-09T10:51:01;5.45;;;4.00;;
23046;SDS011;11691;51.462;6.902;2023-04-09T10:53:29;5.80;;;4.47;;
23046;SDS011;11691;51.462;6.902;2023-04-09T10:55:57;5.70;;;4.63;;
23046;SDS011;11691;51.462;6.902;2023-04-09T10:58:23;5.22;;;4.30;;
23046;SDS011;11691;51.462;6.902;2023-04-09T11:00:49;6.22;;;5.10;;
23046;SDS011;11691;51.462;6.902;2023-04-09T11:03:19;5.63;;;4.35;;
23046;SDS011;11691;51.462;6.902;2023-04-09T11:05:46;6.10;;;4.80;;
23046;SDS011;11691;51.462;6.902;2023-04-09T11:08:13;6.03;;;4.82;;
23046;SDS011;11691;51.462;6.902;2023-04-09T11:10:40;7.47;;;4.80;;
23046;SDS011;11691;51.462;6.902;2023-04-09T11:13:11;5.47;;;4.63;;
23046;SDS011;11691;51.462;6.902;2023-04-09T11:15:37;6.30;;;4.70;;
23046;SDS011;11691;51.462;6.902;2023-04-09T11:18:03;6.20;;;5.03;;
23046;SDS011;11691;51.462;6.902;2023-04-09T11:20:34;5.45;;;4.22;;
23046;SDS011;11691;51.462;6.902;2023-04-09T11:23:00;5.15;;;4.35;;
23046;SDS011;11691;51.462;6.902;2023-04-09T11:25:27;6.78;;;4.97;;
23046;SDS011;11691;51.462;6.902;2023-04-09T11:27:57;5.38;;;4.18;;
23046;SDS011;11691;51.462;6.902;2023-04-09T11:30:23;6.40;;;4.78;;
23046;SDS011;11691;51.462;6.902;2023-04-09T11:32:50;5.45;;;4.63;;
23046;SDS011;11691;51.462;6.902;2023-04-09T11:35:19;5.32;;;3.92;;
23046;SDS011;11691;51.462;6.902;2023-04-09T11:37:46;5.18;;;4.55;;
23046;SDS011;11691;51.462;6.902;2023-04-09T11:40:13;6.05;;;4.82;;
23046;SDS011;11691;51.462;6.902;2023-04-09T11:42:40;5.32;;;4.03;;
23046;SDS011;11691;51.462;6.902;2023-04-09T11:45:06;5.22;;;4.25;;
23046;SDS011;11691;51.462;6.902;2023-04-09T11:47:33;7.47;;;4.95;;
23046;SDS011;11691;51.462;6.902;2023-04-09T11:50:00;6.13;;;4.53;;
23046;SDS011;11691;51.462;6.902;2023-04-09T11:52:26;5.28;;;4.43;;
23046;SDS011;11691;51.462;6.902;2023-04-09T11:54:58;6.70;;;4.90;;
23046;SDS011;11691;51.462;6.902;2023-04-09T11:57:34;6.68;;;5.07;;
23046;SDS011;11691;51.462;6.902;2023-04-09T12:00:11;6.45;;;5.30;;
23046;SDS011;11691;51.462;6.902;2023-04-09T12:02:38;5.90;;;5.30;;
23046;SDS011;11691;51.462;6.902;2023-04-09T12:05:06;5.70;;;4.75;;
23046;SDS011;11691;51.462;6.902;2023-04-09T12:07:33;5.15;;;4.55;;
23046;SDS011;11691;51.462;6.902;2023-04-09T12:10:05;5.60;;;4.85;;
23046;SDS011;11691;51.462;6.902;2023-04-09T12:12:38;6.38;;;5.00;;
23046;SDS011;11691;51.462;6.902;2023-04-09T12:17:40;7.10;;;5.75;;
23046;SDS011;11691;51.462;6.902;2023-04-09T12:20:06;7.00;;;5.20;;
23046;SDS011;11691;51.462;6.902;2023-04-09T12:22:33;6.55;;;5.00;;
23046;SDS011;11691;51.462;6.902;2023-04-09T12:25:02;6.90;;;5.32;;
23046;SDS011;11691;51.462;6.902;2023-04-09T12:27:28;6.47;;;5.00;;
23046;SDS011;11691;51.462;6.902;2023-04-09T12:29:54;6.03;;;5.13;;
23046;SDS011;11691;51.462;6.902;2023-04-09T12:32:20;6.07;;;5.07;;
23046;SDS011;11691;51.462;6.902;2023-04-09T12:34:46;6.05;;;4.95;;
23046;SDS011;11691;51.462;6.902;2023-04-09T12:37:13;6.55;;;5.18;;
23046;SDS011;11691;51.462;6.902;2023-04-09T12:39:40;7.03;;;5.90;;
23046;SDS011;11691;51.462;6.902;2023-04-09T12:42:06;7.43;;;5.50;;
23046;SDS011;11691;51.462;6.902;2023-04-09T12:44:32;6.65;;;5.10;;
23046;SDS011;11691;51.462;6.902;2023-04-09T12:46:58;6.15;;;5.13;;
23046;SDS011;11691;51.462;6.902;2023-04-09T12:49:24;5.90;;;4.88;;
23046;SDS011;11691;51.462;6.902;2023-04-09T12:51:50;6.57;;;5.30;;
23046;SDS011;11691;51.462;6.902;2023-04-09T12:54:16;5.68;;;4.50;;
23046;SDS011;11691;51.462;6.902;2023-04-09T12:56:42;6.63;;;5.47;;
23046;SDS011;11691;51.462;6.902;2023-04-09T12:59:08;7.55;;;5.38;;
23046;SDS011;11691;51.462;6.902;2023-04-09T13:01:34;8.20;;;5.65;;
23046;SDS011;11691;51.462;6.902;2023-04-09T13:04:00;7.45;;;5.47;;
23046;SDS011;11691;51.462;6.902;2023-04-09T13:06:26;6.05;;;4.90;;
23046;SDS011;11691;51.462;6.902;2023-04-09T13:08:52;6.38;;;5.22;;
23046;SDS011;11691;51.462;6.902;2023-04-09T13:11:18;6.35;;;4.88;;
23046;SDS011;11691;51.462;6.902;2023-04-09T13:13:44;6.03;;;4.78;;
23046;SDS011;11691;51.462;6.902;2023-04-09T13:16:11;6.55;;;5.50;;
23046;SDS011;11691;51.462;6.902;2023-04-09T13:18:37;6.82;;;5.70;;
23046;SDS011;11691;51.462;6.902;2023-04-09T13:21:03;6.53;;;5.82;;
23046;SDS011;11691;51.462;6.902;2023-04-09T13:23:29;8.52;;;5.55;;
23046;SDS011;11691;51.462;6.902;2023-04-09T13:25:55;6.15;;;5.50;;
23046;SDS011;11691;51.462;6.902;2023-04-09T13:28:21;8.02;;;5.53;;
23046;SDS011;11691;51.462;6.902;2023-04-09T13:30:47;6.57;;;5.10;;
23046;SDS011;11691;51.462;6.902;2023-04-09T13:33:13;7.47;;;5.50;;
23046;SDS011;11691;51.462;6.902;2023-04-09T13:35:39;7.72;;;5.45;;
23046;SDS011;11691;51.462;6.902;2023-04-09T13:38:05;6.75;;;4.93;;
23046;SDS011;11691;51.462;6.902;2023-04-09T13:40:31;7.15;;;5.28;;
23046;SDS011;11691;51.462;6.902;2023-04-09T13:42:57;6.93;;;5.20;;
23046;SDS011;11691;51.462;6.902;2023-04-09T13:45:23;6.90;;;5.18;;
23046;SDS011;11691;51.462;6.902;2023-04-09T13:47:49;7.20;;;5.00;;
23046;SDS011;11691;51.462;6.902;2023-04-09T13:50:15;6.97;;;4.80;;
23046;SDS011;11691;51.462;6.902;2023-04-09T13:52:41;6.70;;;4.32;;
23046;SDS011;11691;51.462;6.902;2023-04-09T13:55:07;7.40;;;5.60;;
23046;SDS011;11691;51.462;6.902;2023-04-09T13:57:33;6.95;;;4.90;;
23046;SDS011;11691;51.462;6.902;2023-04-09T13:59:59;6.90;;;4.80;;
23046;SDS011;11691;51.462;6.902;2023-04-09T14:02:28;8.15;;;5.03;;
23046;SDS011;11691;51.462;6.902;2023-04-09T14:04:54;7.32;;;4.70;;
23046;SDS011;11691;51.462;6.902;2023-04-09T14:07:21;6.63;;;4.78;;
23046;SDS011;11691;51.462;6.902;2023-04-09T14:09:47;6.88;;;4.72;;
23046;SDS011;11691;51.462;6.902;2023-04-09T14:12:14;7.05;;;4.80;;
23046;SDS011;11691;51.462;6.902;2023-04-09T14:14:40;8.38;;;4.68;;
23046;SDS011;11691;51.462;6.902;2023-04-09T14:17:06;7.22;;;5.25;;
23046;SDS011;11691;51.462;6.902;2023-04-09T14:19:32;7.22;;;5.07;;
23046;SDS011;11691;51.462;6.902;2023-04-09T14:21:58;7.57;;;5.38;;
23046;SDS011;11691;51.462;6.902;2023-04-09T14:24:24;6.47;;;5.00;;
23046;SDS011;11691;51.462;6.902;2023-04-09T14:26:50;7.15;;;4.78;;
23046;SDS011;11691;51.462;6.902;2023-04-09T14:29:17;5.65;;;4.20;;
23046;SDS011;11691;51.462;6.902;2023-04-09T14:31:43;6.85;;;4.85;;
23046;SDS011;11691;51.462;6.902;2023-04-09T14:34:11;5.93;;;4.88;;
23046;SDS011;11691;51.462;6.902;2023-04-09T14:36:37;7.45;;;4.93;;
23046;SDS011;11691;51.462;6.902;2023-04-09T14:39:03;6.72;;;4.25;;
23046;SDS011;11691;51.462;6.902;2023-04-09T14:41:29;5.43;;;4.65;;
23046;SDS011;11691;51.462;6.902;2023-04-09T14:43:58;7.88;;;4.63;;
23046;SDS011;11691;51.462;6.902;2023-04-09T14:46:24;6.45;;;4.88;;
23046;SDS011;11691;51.462;6.902;2023-04-09T14:48:50;5.30;;;4.32;;
23046;SDS011;11691;51.462;6.902;2023-04-09T14:51:16;6.65;;;5.22;;